sensor_id;sensor_type;location;lat;lon;timestamp;pressure;altitude;pressure_sealevel;temperature;humidity
69171;BME280;56279;47.902;12.308;2023-01-29T00:01:14;96272.66;;;-2.78;92.33
69171;BME280;56279;47.902;12.308;2023-01-29T00:03:16;96280.22;;;-2.76;92.39
69171;BME280;56279;47.902;12.308;2023-01-29T00:05:18;96282.19;;;-2.78;92.59
69171;BME280;56279;47.902;12.308;2023-01-29T00:07:21;96279.94;;;-2.82;92.57
69171;BME280;56279;47.902;12.308;2023-01-29T00:09:22;96273.97;;;-2.82;92.65
69171;BME280;56279;47.902;12.308;2023-01-29T00:11:24;96275.41;;;-2.80;92.85
69171;BME280;56279;47.902;12.308;2023-01-29T00:13:25;96275.69;;;-2.74;92.63
69171;BME280;56279;47.902;12.308;2023-01-29T00:15:26;96272.44;;;-2.68;92.87
69171;BME280;56279;47.902;12.308;2023-01-29T00:17:27;96274.97;;;-2.60;92.31
69171;BME280;56279;47.902;12.308;2023-01-29T00:19:29;96276.34;;;-2.50;92.32
69171;BME280;56279;47.902;12.308;2023-01-29T00:21:31;96275.94;;;-2.39;92.43
69171;BME280;56279;47.902;12.308;2023-01-29T00:23:33;96269.53;;;-2.28;91.95
69171;BME280;56279;47.902;12.308;2023-01-29T00:25:34;96270.31;;;-2.20;92.05
69171;BME280;56279;47.902;12.308;2023-01-29T00:27:37;96262.66;;;-2.13;92.33
69171;BME280;56279;47.902;12.308;2023-01-29T00:29:38;96268.72;;;-2.06;92.08
69171;BME280;56279;47.902;12.308;2023-01-29T00:31:43;96274.97;;;-2.00;92.28
69171;BME280;56279;47.902;12.308;2023-01-29T00:33:45;96275.88;;;-1.93;91.67
69171;BME280;56279;47.902;12.308;2023-01-29T00:35:47;96282.13;;;-1.88;91.74
69171;BME280;56279;47.902;12.308;2023-01-29T00:37:49;96281.25;;;-1.80;92.09
69171;BME280;56279;47.902;12.308;2023-01-29T00:39:52;96279.72;;;-1.75;91.41
69171;BME280;56279;47.902;12.308;2023-01-29T00:41:53;96281.78;;;-1.70;91.92
69171;BME280;56279;47.902;12.308;2023-01-29T00:44:13;96280.09;;;-1.63;91.99
69171;BME280;56279;47.902;12.308;2023-01-29T00:46:34;96284.56;;;-1.57;91.11
69171;BME280;56279;47.902;12.308;2023-01-29T00:48:36;96284.84;;;-1.52;91.56
69171;BME280;56279;47.902;12.308;2023-01-29T00:50:38;96285.47;;;-1.50;91.50
69171;BME280;56279;47.902;12.308;2023-01-29T00:52:40;96282.53;;;-1.47;91.42
69171;BME280;56279;47.902;12.308;2023-01-29T00:54:42;96290.13;;;-1.46;91.82
69171;BME280;56279;47.902;12.308;2023-01-29T00:56:44;96297.34;;;-1.41;91.63
69171;BME280;56279;47.902;12.308;2023-01-29T00:58:45;96297.00;;;-1.38;91.55
69171;BME280;56279;47.902;12.308;2023-01-29T01:00:50;96295.84;;;-1.35;91.71
69171;BME280;56279;47.902;12.308;2023-01-29T01:02:51;96297.06;;;-1.31;91.82
69171;BME280;56279;47.902;12.308;2023-01-29T01:05:09;96298.31;;;-1.27;91.65
69171;BME280;56279;47.902;12.308;2023-01-29T01:07:14;96302.16;;;-1.23;91.71
69171;BME280;56279;47.902;12.308;2023-01-29T01:09:15;96293.22;;;-1.21;91.68
69171;BME280;56279;47.902;12.308;2023-01-29T01:11:36;96302.25;;;-1.17;91.72
69171;BME280;56279;47.902;12.308;2023-01-29T01:13:37;96303.66;;;-1.14;91.61
69171;BME280;56279;47.902;12.308;2023-01-29T01:15:39;96302.69;;;-1.13;91.59
69171;BME280;56279;47.902;12.308;2023-01-29T01:17:42;96302.31;;;-1.10;91.59
69171;BME280;56279;47.902;12.308;2023-01-29T01:19:44;96298.75;;;-1.09;91.10
69171;BME280;56279;47.902;12.308;2023-01-29T01:21:45;96308.13;;;-1.08;91.79
69171;BME280;56279;47.902;12.308;2023-01-29T01:23:48;96313.13;;;-1.07;91.66
69171;BME280;56279;47.902;12.308;2023-01-29T01:25:51;96299.19;;;-1.06;91.92
69171;BME280;56279;47.902;12.308;2023-01-29T01:27:56;96304.03;;;-1.03;91.67
69171;BME280;56279;47.902;12.308;2023-01-29T01:29:58;96302.84;;;-1.00;91.50
69171;BME280;56279;47.902;12.308;2023-01-29T01:32:00;96303.66;;;-1.00;91.88
69171;BME280;56279;47.902;12.308;2023-01-29T01:34:01;96297.31;;;-0.97;91.45
69171;BME280;56279;47.902;12.308;2023-01-29T01:36:03;96308.13;;;-0.94;91.63
69171;BME280;56279;47.902;12.308;2023-01-29T01:38:05;96306.16;;;-0.92;91.82
69171;BME280;56279;47.902;12.308;2023-01-29T01:40:14;96299.97;;;-0.91;91.61
69171;BME280;56279;47.902;12.308;2023-01-29T01:42:18;96293.00;;;-0.90;91.51
69171;BME280;56279;47.902;12.308;2023-01-29T01:44:55;96293.00;;;-0.90;91.55
69171;BME280;56279;47.902;12.308;2023-01-29T01:46:59;96291.22;;;-0.90;91.69
69171;BME280;56279;47.902;12.308;2023-01-29T01:49:10;96286.22;;;-0.91;91.53
69171;BME280;56279;47.902;12.308;2023-01-29T01:51:15;96290.59;;;-0.92;91.62
69171;BME280;56279;47.902;12.308;2023-01-29T01:53:26;96293.81;;;-0.90;91.76
69171;BME280;56279;47.902;12.308;2023-01-29T01:55:30;96289.44;;;-0.89;91.91
69171;BME280;56279;47.902;12.308;2023-01-29T01:57:44;96292.03;;;-0.89;91.33
69171;BME280;56279;47.902;12.308;2023-01-29T01:59:55;96291.03;;;-0.88;91.37
69171;BME280;56279;47.902;12.308;2023-01-29T02:01:58;96288.44;;;-0.88;91.49
69171;BME280;56279;47.902;12.308;2023-01-29T02:04:22;96289.06;;;-0.86;91.53
69171;BME280;56279;47.902;12.308;2023-01-29T02:06:43;96281.13;;;-0.85;91.67
69171;BME280;56279;47.902;12.308;2023-01-29T02:09:08;96286.91;;;-0.83;91.45
69171;BME280;56279;47.902;12.308;2023-01-29T02:11:29;96292.47;;;-0.86;91.57
69171;BME280;56279;47.902;12.308;2023-01-29T02:13:31;96295.03;;;-0.86;91.64
69171;BME280;56279;47.902;12.308;2023-01-29T02:15:32;96292.66;;;-0.87;91.43
69171;BME280;56279;47.902;12.308;2023-01-29T02:17:33;96302.19;;;-0.88;91.52
69171;BME280;56279;47.902;12.308;2023-01-29T02:19:54;96299.41;;;-0.86;91.45
69171;BME280;56279;47.902;12.308;2023-01-29T02:27:04;96306.22;;;-0.85;91.42
69171;BME280;56279;47.902;12.308;2023-01-29T02:29:28;96300.84;;;-0.84;91.35
69171;BME280;56279;47.902;12.308;2023-01-29T02:31:40;96297.28;;;-0.83;91.51
69171;BME280;56279;47.902;12.308;2023-01-29T02:34:08;96300.50;;;-0.81;91.27
69171;BME280;56279;47.902;12.308;2023-01-29T02:41:08;96321.84;;;-0.79;91.27
69171;BME280;56279;47.902;12.308;2023-01-29T02:43:26;96307.72;;;-0.76;91.48
69171;BME280;56279;47.902;12.308;2023-01-29T02:47:56;96311.94;;;-0.75;91.28
69171;BME280;56279;47.902;12.308;2023-01-29T02:54:23;96308.78;;;-0.71;91.40
69171;BME280;56279;47.902;12.308;2023-01-29T02:56:35;96310.22;;;-0.68;91.15
69171;BME280;56279;47.902;12.308;2023-01-29T02:58:44;96310.03;;;-0.66;91.15
69171;BME280;56279;47.902;12.308;2023-01-29T03:00:48;96303.06;;;-0.66;91.34
69171;BME280;56279;47.902;12.308;2023-01-29T03:02:59;96305.66;;;-0.66;91.57
69171;BME280;56279;47.902;12.308;2023-01-29T03:05:07;96305.66;;;-0.66;90.86
69171;BME280;56279;47.902;12.308;2023-01-29T03:07:16;96302.25;;;-0.66;91.43
69171;BME280;56279;47.902;12.308;2023-01-29T03:09:46;96303.41;;;-0.69;91.29
69171;BME280;56279;47.902;12.308;2023-01-29T03:11:52;96296.59;;;-0.70;91.04
69171;BME280;56279;47.902;12.308;2023-01-29T03:14:07;96293.25;;;-0.71;91.70
69171;BME280;56279;47.902;12.308;2023-01-29T03:16:22;96300.00;;;-0.70;91.69
69171;BME280;56279;47.902;12.308;2023-01-29T03:18:32;96301.00;;;-0.71;91.34
69171;BME280;56279;47.902;12.308;2023-01-29T03:20:42;96298.22;;;-0.69;91.41
69171;BME280;56279;47.902;12.308;2023-01-29T03:22:53;96297.41;;;-0.70;91.76
69171;BME280;56279;47.902;12.308;2023-01-29T03:24:58;96303.41;;;-0.69;91.48
69171;BME280;56279;47.902;12.308;2023-01-29T03:27:25;96301.44;;;-0.67;91.06
69171;BME280;56279;47.902;12.308;2023-01-29T03:29:47;96295.28;;;-0.66;91.24
69171;BME280;56279;47.902;12.308;2023-01-29T03:32:28;96289.09;;;-0.65;91.66
69171;BME280;56279;47.902;12.308;2023-01-29T03:34:39;96288.13;;;-0.64;91.54
69171;BME280;56279;47.902;12.308;2023-01-29T03:38:51;96281.94;;;-0.63;91.27
69171;BME280;56279;47.902;12.308;2023-01-29T03:40:57;96286.16;;;-0.62;91.09
69171;BME280;56279;47.902;12.308;2023-01-29T03:43:12;96274.16;;;-0.63;90.96
69171;BME280;56279;47.902;12.308;2023-01-29T03:50:32;96271.34;;;-0.68;91.31
69171;BME280;56279;47.902;12.308;2023-01-29T03:52:45;96271.34;;;-0.68;91.11
69171;BME280;56279;47.902;12.308;2023-01-29T03:54:55;96266.78;;;-0.66;91.06
69171;BME280;56279;47.902;12.308;2023-01-29T04:00:37;96265.34;;;-0.68;90.78
69171;BME280;56279;47.902;12.308;2023-01-29T04:03:19;96262.91;;;-0.70;91.33
69171;BME280;56279;47.902;12.308;2023-01-29T04:05:26;96270.09;;;-0.72;91.66
69171;BME280;56279;47.902;12.308;2023-01-29T04:07:43;96268.50;;;-0.73;91.34
69171;BME280;56279;47.902;12.308;2023-01-29T04:09:50;96273.69;;;-0.73;91.30
69171;BME280;56279;47.902;12.308;2023-01-29T04:11:56;96268.50;;;-0.73;92.15
69171;BME280;56279;47.902;12.308;2023-01-29T04:14:02;96262.50;;;-0.74;91.72
69171;BME280;56279;47.902;12.308;2023-01-29T04:16:07;96255.53;;;-0.73;91.71
69171;BME280;56279;47.902;12.308;2023-01-29T04:18:47;96257.31;;;-0.74;91.21
69171;BME280;56279;47.902;12.308;2023-01-29T04:20:49;96256.25;;;-0.79;91.65
69171;BME280;56279;47.902;12.308;2023-01-29T04:22:51;96251.88;;;-0.79;91.62
69171;BME280;56279;47.902;12.308;2023-01-29T04:24:53;96249.47;;;-0.80;91.49
69171;BME280;56279;47.902;12.308;2023-01-29T04:27:26;96251.25;;;-0.81;91.79
69171;BME280;56279;47.902;12.308;2023-01-29T04:34:24;96245.88;;;-0.79;91.37
69171;BME280;56279;47.902;12.308;2023-01-29T04:43:26;96238.81;;;-0.71;91.15
69171;BME280;56279;47.902;12.308;2023-01-29T04:48:29;96242.19;;;-0.70;91.27
69171;BME280;56279;47.902;12.308;2023-01-29T04:50:43;96244.00;;;-0.71;91.52
69171;BME280;56279;47.902;12.308;2023-01-29T04:52:59;96239.59;;;-0.70;91.39
69171;BME280;56279;47.902;12.308;2023-01-29T04:55:16;96239.59;;;-0.70;91.13
69171;BME280;56279;47.902;12.308;2023-01-29T05:00:02;96244.63;;;-0.68;91.01
69171;BME280;56279;47.902;12.308;2023-01-29T05:02:09;96245.59;;;-0.70;91.56
69171;BME280;56279;47.902;12.308;2023-01-29T05:04:13;96245.59;;;-0.70;91.51
69171;BME280;56279;47.902;12.308;2023-01-29T05:06:17;96253.56;;;-0.71;91.11
69171;BME280;56279;47.902;12.308;2023-01-29T05:08:23;96248.75;;;-0.74;91.16
69171;BME280;56279;47.902;12.308;2023-01-29T05:10:26;96254.13;;;-0.76;91.52
69171;BME280;56279;47.902;12.308;2023-01-29T05:12:28;96243.75;;;-0.76;91.30
69171;BME280;56279;47.902;12.308;2023-01-29T05:14:32;96244.91;;;-0.78;91.34
69171;BME280;56279;47.902;12.308;2023-01-29T05:16:39;96244.31;;;-0.80;91.42
69171;BME280;56279;47.902;12.308;2023-01-29T05:18:42;96247.88;;;-0.81;91.83
69171;BME280;56279;47.902;12.308;2023-01-29T05:20:44;96246.91;;;-0.80;91.48
69171;BME280;56279;47.902;12.308;2023-01-29T05:22:47;96240.72;;;-0.79;91.60
69171;BME280;56279;47.902;12.308;2023-01-29T05:24:49;96240.91;;;-0.81;91.80
69171;BME280;56279;47.902;12.308;2023-01-29T05:26:52;96242.53;;;-0.80;91.43
69171;BME280;56279;47.902;12.308;2023-01-29T05:29:12;96248.47;;;-0.79;91.43
69171;BME280;56279;47.902;12.308;2023-01-29T05:31:13;96254.31;;;-0.77;91.87
69171;BME280;56279;47.902;12.308;2023-01-29T05:33:22;96255.91;;;-0.76;91.52
69171;BME280;56279;47.902;12.308;2023-01-29T05:35:23;96265.28;;;-0.75;91.25
69171;BME280;56279;47.902;12.308;2023-01-29T05:37:25;96263.66;;;-0.76;91.67
69171;BME280;56279;47.902;12.308;2023-01-29T05:39:26;96276.81;;;-0.78;91.41
69171;BME280;56279;47.902;12.308;2023-01-29T05:41:28;96282.00;;;-0.78;91.10
69171;BME280;56279;47.902;12.308;2023-01-29T05:43:29;96283.97;;;-0.80;91.64
69171;BME280;56279;47.902;12.308;2023-01-29T05:45:31;96282.53;;;-0.82;91.22
69171;BME280;56279;47.902;12.308;2023-01-29T05:47:32;96283.53;;;-0.83;91.60
69171;BME280;56279;47.902;12.308;2023-01-29T05:49:34;96286.09;;;-0.83;91.46
69171;BME280;56279;47.902;12.308;2023-01-29T05:51:35;96286.31;;;-0.85;92.04
69171;BME280;56279;47.902;12.308;2023-01-29T05:53:36;96291.84;;;-0.88;91.66
69171;BME280;56279;47.902;12.308;2023-01-29T05:55:37;96292.03;;;-0.89;91.56
69171;BME280;56279;47.902;12.308;2023-01-29T05:57:40;96291.03;;;-0.88;91.74
69171;BME280;56279;47.902;12.308;2023-01-29T05:59:41;96291.03;;;-0.88;91.47
69171;BME280;56279;47.902;12.308;2023-01-29T06:01:42;96292.66;;;-0.87;91.59
69171;BME280;56279;47.902;12.308;2023-01-29T06:03:44;96294.25;;;-0.86;91.73
69171;BME280;56279;47.902;12.308;2023-01-29T06:05:45;96300.41;;;-0.87;91.49
69171;BME280;56279;47.902;12.308;2023-01-29T06:07:47;96298.81;;;-0.88;91.85
69171;BME280;56279;47.902;12.308;2023-01-29T06:09:48;96297.03;;;-0.88;91.61
69171;BME280;56279;47.902;12.308;2023-01-29T06:11:49;96298.63;;;-0.87;91.80
69171;BME280;56279;47.902;12.308;2023-01-29T06:13:50;96294.06;;;-0.85;92.02
69171;BME280;56279;47.902;12.308;2023-01-29T06:15:53;96294.69;;;-0.83;91.73
69171;BME280;56279;47.902;12.308;2023-01-29T06:17:55;96297.09;;;-0.81;91.44
69171;BME280;56279;47.902;12.308;2023-01-29T06:19:56;96298.88;;;-0.82;91.74
69171;BME280;56279;47.902;12.308;2023-01-29T06:21:58;96302.47;;;-0.83;91.63
69171;BME280;56279;47.902;12.308;2023-01-29T06:23:59;96302.66;;;-0.84;91.54
69171;BME280;56279;47.902;12.308;2023-01-29T06:26:06;96301.84;;;-0.85;91.70
69171;BME280;56279;47.902;12.308;2023-01-29T06:28:07;96299.41;;;-0.86;91.78
69171;BME280;56279;47.902;12.308;2023-01-29T06:30:09;96310.59;;;-0.86;91.95
69171;BME280;56279;47.902;12.308;2023-01-29T06:32:10;96294.88;;;-0.84;91.81
69171;BME280;56279;47.902;12.308;2023-01-29T06:34:12;96297.47;;;-0.84;91.35
69171;BME280;56279;47.902;12.308;2023-01-29T06:36:13;96291.47;;;-0.85;91.69
69171;BME280;56279;47.902;12.308;2023-01-29T06:38:14;96293.25;;;-0.85;92.02
69171;BME280;56279;47.902;12.308;2023-01-29T06:40:15;96292.28;;;-0.84;91.65
69171;BME280;56279;47.902;12.308;2023-01-29T06:42:17;96294.88;;;-0.84;91.88
69171;BME280;56279;47.902;12.308;2023-01-29T06:44:18;96291.47;;;-0.85;92.33
69171;BME280;56279;47.902;12.308;2023-01-29T06:46:19;96292.91;;;-0.82;91.99
69171;BME280;56279;47.902;12.308;2023-01-29T06:48:22;96296.13;;;-0.80;91.89
69171;BME280;56279;47.902;12.308;2023-01-29T06:50:23;96298.34;;;-0.77;91.65
69171;BME280;56279;47.902;12.308;2023-01-29T06:52:25;96299.94;;;-0.76;91.76
69171;BME280;56279;47.902;12.308;2023-01-29T06:54:28;96294.75;;;-0.76;91.70
69171;BME280;56279;47.902;12.308;2023-01-29T06:56:30;96294.56;;;-0.75;91.62
69171;BME280;56279;47.902;12.308;2023-01-29T06:58:31;96302.34;;;-0.75;92.12
69171;BME280;56279;47.902;12.308;2023-01-29T07:00:33;96301.56;;;-0.75;91.39
69171;BME280;56279;47.902;12.308;2023-01-29T07:02:34;96301.56;;;-0.75;91.72
69171;BME280;56279;47.902;12.308;2023-01-29T07:04:35;96302.34;;;-0.75;91.76
69171;BME280;56279;47.902;12.308;2023-01-29T07:06:38;96306.34;;;-0.72;91.63
69171;BME280;56279;47.902;12.308;2023-01-29T07:08:40;96310.22;;;-0.68;91.60
69171;BME280;56279;47.902;12.308;2023-01-29T07:10:41;96303.66;;;-0.64;91.65
69171;BME280;56279;47.902;12.308;2023-01-29T07:12:42;96300.34;;;-0.58;91.38
69171;BME280;56279;47.902;12.308;2023-01-29T07:14:43;96302.38;;;-0.53;91.76
69171;BME280;56279;47.902;12.308;2023-01-29T07:16:45;96297.63;;;-0.50;91.30
69171;BME280;56279;47.902;12.308;2023-01-29T07:18:46;96303.44;;;-0.48;91.66
69171;BME280;56279;47.902;12.308;2023-01-29T07:20:47;96292.66;;;-0.51;91.47
69171;BME280;56279;47.902;12.308;2023-01-29T07:22:48;96303.03;;;-0.51;90.93
69171;BME280;56279;47.902;12.308;2023-01-29T07:24:50;96306.03;;;-0.48;91.31
69171;BME280;56279;47.902;12.308;2023-01-29T07:26:51;96298.31;;;-0.41;91.11
69171;BME280;56279;47.902;12.308;2023-01-29T07:28:53;96295.00;;;-0.35;90.60
69171;BME280;56279;47.902;12.308;2023-01-29T07:30:58;96292.47;;;-0.29;90.88
69171;BME280;56279;47.902;12.308;2023-01-29T07:33:04;96293.50;;;-0.23;90.84
69171;BME280;56279;47.902;12.308;2023-01-29T07:35:06;96293.34;;;-0.22;90.71
69171;BME280;56279;47.902;12.308;2023-01-29T07:37:07;96289.72;;;-0.21;90.27
69171;BME280;56279;47.902;12.308;2023-01-29T07:39:08;96292.78;;;-0.17;90.69
69171;BME280;56279;47.902;12.308;2023-01-29T07:41:10;96284.63;;;-0.14;90.57
69171;BME280;56279;47.902;12.308;2023-01-29T07:43:11;96282.66;;;-0.12;90.62
69171;BME280;56279;47.902;12.308;2023-01-29T07:45:13;96281.47;;;-0.10;90.40
69171;BME280;56279;47.902;12.308;2023-01-29T07:47:14;96269.47;;;-0.11;90.31
69171;BME280;56279;47.902;12.308;2023-01-29T07:49:15;96275.66;;;-0.12;90.21
69171;BME280;56279;47.902;12.308;2023-01-29T07:51:16;96283.81;;;-0.15;89.83
69171;BME280;56279;47.902;12.308;2023-01-29T07:53:18;96278.78;;;-0.16;89.96
69171;BME280;56279;47.902;12.308;2023-01-29T07:55:20;96272.44;;;-0.14;90.22
69171;BME280;56279;47.902;12.308;2023-01-29T07:57:21;96264.28;;;-0.11;89.86
69171;BME280;56279;47.902;12.308;2023-01-29T07:59:22;96272.31;;;-0.06;89.88
69171;BME280;56279;47.902;12.308;2023-01-29T08:01:24;96272.94;;;-0.04;89.21
69171;BME280;56279;47.902;12.308;2023-01-29T08:03:25;96265.75;;;-0.02;89.81
69171;BME280;56279;47.902;12.308;2023-01-29T08:05:26;96259.59;;;-0.01;89.16
69171;BME280;56279;47.902;12.308;2023-01-29T08:07:27;96271.19;;;0.04;89.79
69171;BME280;56279;47.902;12.308;2023-01-29T08:09:29;96265.63;;;0.07;89.20
69171;BME280;56279;47.902;12.308;2023-01-29T08:11:30;96272.84;;;0.11;89.35
69171;BME280;56279;47.902;12.308;2023-01-29T08:13:32;96274.69;;;0.17;88.85
69171;BME280;56279;47.902;12.308;2023-01-29T08:15:33;96268.56;;;0.25;89.02
69171;BME280;56279;47.902;12.308;2023-01-29T08:17:35;96266.44;;;0.35;88.63
69171;BME280;56279;47.902;12.308;2023-01-29T08:19:36;96266.47;;;0.41;88.22
69171;BME280;56279;47.902;12.308;2023-01-29T08:21:37;96268.72;;;0.51;88.89
69171;BME280;56279;47.902;12.308;2023-01-29T08:23:38;96268.56;;;0.59;88.13
69171;BME280;56279;47.902;12.308;2023-01-29T08:25:40;96266.00;;;0.65;88.46
69171;BME280;56279;47.902;12.308;2023-01-29T08:27:41;96268.44;;;0.74;88.02
69171;BME280;56279;47.902;12.308;2023-01-29T08:29:42;96268.84;;;0.77;87.55
69171;BME280;56279;47.902;12.308;2023-01-29T08:31:45;96265.91;;;0.87;87.34
69171;BME280;56279;47.902;12.308;2023-01-29T08:33:46;96271.16;;;0.93;87.14
69171;BME280;56279;47.902;12.308;2023-01-29T08:35:51;96274.75;;;0.99;86.94
69171;BME280;56279;47.902;12.308;2023-01-29T08:37:57;96272.19;;;1.05;87.08
69171;BME280;56279;47.902;12.308;2023-01-29T08:40:00;96274.81;;;1.12;86.84
69171;BME280;56279;47.902;12.308;2023-01-29T08:42:01;96279.44;;;1.16;86.58
69171;BME280;56279;47.902;12.308;2023-01-29T08:44:03;96277.44;;;1.18;86.22
69171;BME280;56279;47.902;12.308;2023-01-29T08:46:06;96278.03;;;1.14;85.80
69171;BME280;56279;47.902;12.308;2023-01-29T08:48:08;96282.19;;;1.08;86.10
69171;BME280;56279;47.902;12.308;2023-01-29T08:50:10;96277.38;;;1.05;86.00
69171;BME280;56279;47.902;12.308;2023-01-29T08:52:13;96288.19;;;1.02;86.17
69171;BME280;56279;47.902;12.308;2023-01-29T08:54:14;96285.72;;;0.94;86.67
69171;BME280;56279;47.902;12.308;2023-01-29T08:56:16;96281.69;;;0.85;86.76
69171;BME280;56279;47.902;12.308;2023-01-29T08:58:19;96289.03;;;0.75;85.83
69171;BME280;56279;47.902;12.308;2023-01-29T09:00:21;96301.19;;;0.68;86.70
69171;BME280;56279;47.902;12.308;2023-01-29T09:02:22;96301.56;;;0.65;87.29
69171;BME280;56279;47.902;12.308;2023-01-29T09:04:23;96298.78;;;0.66;87.08
69171;BME280;56279;47.902;12.308;2023-01-29T09:06:25;96300.16;;;0.62;86.71
69171;BME280;56279;47.902;12.308;2023-01-29T09:08:26;96290.53;;;0.56;86.73
69171;BME280;56279;47.902;12.308;2023-01-29T09:10:28;96297.53;;;0.56;86.97
69171;BME280;56279;47.902;12.308;2023-01-29T09:12:30;96304.91;;;0.59;87.74
69171;BME280;56279;47.902;12.308;2023-01-29T09:14:31;96302.78;;;0.69;86.82
69171;BME280;56279;47.902;12.308;2023-01-29T09:16:32;96308.78;;;0.69;86.80
69171;BME280;56279;47.902;12.308;2023-01-29T09:18:34;96308.19;;;0.67;86.75
69171;BME280;56279;47.902;12.308;2023-01-29T09:20:35;96309.19;;;0.73;85.66
69171;BME280;56279;47.902;12.308;2023-01-29T09:22:38;96311.22;;;0.78;85.84
69171;BME280;56279;47.902;12.308;2023-01-29T09:24:39;96312.25;;;0.83;85.65
69171;BME280;56279;47.902;12.308;2023-01-29T09:26:40;96313.31;;;0.89;85.72
69171;BME280;56279;47.902;12.308;2023-01-29T09:28:41;96313.91;;;0.91;85.95
69171;BME280;56279;47.902;12.308;2023-01-29T09:30:43;96315.09;;;0.88;85.05
69171;BME280;56279;47.902;12.308;2023-01-29T09:32:45;96316.88;;;0.88;85.39
69171;BME280;56279;47.902;12.308;2023-01-29T09:34:46;96321.72;;;0.91;85.70
69171;BME280;56279;47.902;12.308;2023-01-29T09:36:48;96325.50;;;0.88;86.12
69171;BME280;56279;47.902;12.308;2023-01-29T09:38:49;96327.22;;;0.75;85.75
69171;BME280;56279;47.902;12.308;2023-01-29T09:41:07;96325.69;;;0.59;86.26
69171;BME280;56279;47.902;12.308;2023-01-29T09:45:20;96334.53;;;0.64;86.76
69171;BME280;56279;47.902;12.308;2023-01-29T09:47:27;96328.16;;;0.67;86.23
69171;BME280;56279;47.902;12.308;2023-01-29T09:49:33;96332.00;;;0.78;85.64
69171;BME280;56279;47.902;12.308;2023-01-29T09:51:43;96330.47;;;0.90;86.15
69171;BME280;56279;47.902;12.308;2023-01-29T09:53:53;96337.38;;;1.10;85.52
69171;BME280;56279;47.902;12.308;2023-01-29T09:56:04;96335.25;;;1.27;84.71
69171;BME280;56279;47.902;12.308;2023-01-29T09:58:35;96347.13;;;1.42;84.22
69171;BME280;56279;47.902;12.308;2023-01-29T10:05:45;96346.50;;;1.40;83.82
69171;BME280;56279;47.902;12.308;2023-01-29T10:08:19;96343.53;;;1.44;83.17
69171;BME280;56279;47.902;12.308;2023-01-29T10:11:02;96356.28;;;1.32;83.33
69171;BME280;56279;47.902;12.308;2023-01-29T10:18:32;96348.31;;;0.99;83.75
69171;BME280;56279;47.902;12.308;2023-01-29T10:20:52;96356.53;;;1.03;83.72
69171;BME280;56279;47.902;12.308;2023-01-29T10:23:17;96360.78;;;1.10;83.17
69171;BME280;56279;47.902;12.308;2023-01-29T10:25:21;96355.81;;;1.15;83.54
69171;BME280;56279;47.902;12.308;2023-01-29T10:27:26;96353.22;;;1.22;83.64
69171;BME280;56279;47.902;12.308;2023-01-29T10:29:33;96351.09;;;1.32;83.05
69171;BME280;56279;47.902;12.308;2023-01-29T10:31:38;96351.56;;;1.49;82.30
69171;BME280;56279;47.902;12.308;2023-01-29T10:33:44;96352.63;;;1.67;82.86
69171;BME280;56279;47.902;12.308;2023-01-29T10:35:52;96345.47;;;1.89;82.32
69171;BME280;56279;47.902;12.308;2023-01-29T10:37:57;96339.91;;;2.12;82.04
69171;BME280;56279;47.902;12.308;2023-01-29T10:40:15;96337.91;;;2.40;81.16
69171;BME280;56279;47.902;12.308;2023-01-29T10:44:36;96328.66;;;2.76;79.75
69171;BME280;56279;47.902;12.308;2023-01-29T10:49:09;96336.28;;;2.58;78.74
69171;BME280;56279;47.902;12.308;2023-01-29T10:51:45;96328.66;;;2.50;79.50
69171;BME280;56279;47.902;12.308;2023-01-29T10:54:12;96330.09;;;2.46;78.89
69171;BME280;56279;47.902;12.308;2023-01-29T10:56:59;96328.88;;;2.42;79.15
69171;BME280;56279;47.902;12.308;2023-01-29T10:59:29;96318.66;;;2.41;79.36
69171;BME280;56279;47.902;12.308;2023-01-29T11:01:35;96315.28;;;2.40;78.49
69171;BME280;56279;47.902;12.308;2023-01-29T11:03:36;96304.44;;;2.37;78.44
69171;BME280;56279;47.902;12.308;2023-01-29T11:05:42;96298.84;;;2.40;78.45
69171;BME280;56279;47.902;12.308;2023-01-29T11:07:45;96295.63;;;2.51;77.26
69171;BME280;56279;47.902;12.308;2023-01-29T11:09:59;96299.22;;;2.56;77.08
69171;BME280;56279;47.902;12.308;2023-01-29T11:12:15;96290.78;;;2.67;76.87
69171;BME280;56279;47.902;12.308;2023-01-29T11:14:24;96292.56;;;2.80;77.02
69171;BME280;56279;47.902;12.308;2023-01-29T11:16:28;96285.50;;;2.94;76.84
69171;BME280;56279;47.902;12.308;2023-01-29T11:18:57;96287.69;;;3.03;76.18
69171;BME280;56279;47.902;12.308;2023-01-29T11:21:01;96283.44;;;3.09;76.01
69171;BME280;56279;47.902;12.308;2023-01-29T11:23:03;96283.25;;;3.10;75.83
69171;BME280;56279;47.902;12.308;2023-01-29T11:25:19;96282.44;;;3.10;75.22
69171;BME280;56279;47.902;12.308;2023-01-29T11:27:25;96280.66;;;3.10;75.49
69171;BME280;56279;47.902;12.308;2023-01-29T11:29:37;96281.41;;;3.17;75.32
69171;BME280;56279;47.902;12.308;2023-01-29T11:31:39;96279.16;;;3.27;75.45
69171;BME280;56279;47.902;12.308;2023-01-29T11:33:40;96271.69;;;3.37;75.12
69171;BME280;56279;47.902;12.308;2023-01-29T11:35:43;96277.28;;;3.47;75.59
69171;BME280;56279;47.902;12.308;2023-01-29T11:37:46;96289.28;;;3.48;74.45
69171;BME280;56279;47.902;12.308;2023-01-29T11:39:47;96282.91;;;3.44;74.88
69171;BME280;56279;47.902;12.308;2023-01-29T11:43:56;96284.69;;;3.44;74.33
69171;BME280;56279;47.902;12.308;2023-01-29T11:46:04;96284.91;;;3.42;74.65
69171;BME280;56279;47.902;12.308;2023-01-29T11:48:14;96286.09;;;3.46;74.78
69171;BME280;56279;47.902;12.308;2023-01-29T11:50:21;96287.66;;;3.54;74.69
69171;BME280;56279;47.902;12.308;2023-01-29T11:52:32;96290.22;;;3.61;74.17
69171;BME280;56279;47.902;12.308;2023-01-29T11:54:42;96285.81;;;3.61;73.66
69171;BME280;56279;47.902;12.308;2023-01-29T11:56:45;96284.22;;;3.60;73.71
69171;BME280;56279;47.902;12.308;2023-01-29T11:58:50;96274.78;;;3.59;73.58
69171;BME280;56279;47.902;12.308;2023-01-29T12:00:54;96258.78;;;3.49;73.53
69171;BME280;56279;47.902;12.308;2023-01-29T12:05:17;96249.56;;;3.46;73.71
69171;BME280;56279;47.902;12.308;2023-01-29T12:07:19;96246.75;;;3.48;73.82
69171;BME280;56279;47.902;12.308;2023-01-29T12:09:23;96237.06;;;3.55;74.04